sensor_id;sensor_type;location;lat;lon;timestamp;pressure;altitude;pressure_sealevel;temperature;humidity
22755;BME280;11544;42.020;23.094;2023-01-30T00:00:10;97532.66;;;2.15;99.62
22755;BME280;11544;42.020;23.094;2023-01-30T00:02:37;97534.31;;;2.05;100.00
22755;BME280;11544;42.020;23.094;2023-01-30T00:05:05;97530.06;;;2.09;100.00
22755;BME280;11544;42.020;23.094;2023-01-30T00:07:32;97525.75;;;2.12;100.00
22755;BME280;11544;42.020;23.094;2023-01-30T00:09:59;97533.50;;;2.08;100.00
22755;BME280;11544;42.020;23.094;2023-01-30T00:12:26;97520.66;;;2.16;100.00
22755;BME280;11544;42.020;23.094;2023-01-30T00:14:53;97516.34;;;2.11;100.00
22755;BME280;11544;42.020;23.094;2023-01-30T00:17:20;97515.56;;;2.40;100.00
22755;BME280;11544;42.020;23.094;2023-01-30T00:19:47;97515.53;;;2.31;98.46
22755;BME280;11544;42.020;23.094;2023-01-30T00:22:14;97510.38;;;2.16;99.17
22755;BME280;11544;42.020;23.094;2023-01-30T00:24:41;97516.28;;;1.95;100.00
22755;BME280;11544;42.020;23.094;2023-01-30T00:27:09;97512.84;;;1.91;100.00
22755;BME280;11544;42.020;23.094;2023-01-30T00:29:54;97506.00;;;1.95;100.00
22755;BME280;11544;42.020;23.094;2023-01-30T00:32:42;97513.81;;;2.25;99.63
22755;BME280;11544;42.020;23.094;2023-01-30T00:35:09;97494.09;;;2.33;99.84
22755;BME280;11544;42.020;23.094;2023-01-30T00:37:37;97494.97;;;2.42;98.36
22755;BME280;11544;42.020;23.094;2023-01-30T00:40:12;97493.25;;;2.38;98.41
22755;BME280;11544;42.020;23.094;2023-01-30T00:42:39;97491.56;;;2.41;98.50
22755;BME280;11544;42.020;23.094;2023-01-30T00:45:25;97480.41;;;2.74;97.03
22755;BME280;11544;42.020;23.094;2023-01-30T00:48:11;97497.56;;;2.68;96.30
22755;BME280;11544;42.020;23.094;2023-01-30T00:50:39;97489.84;;;2.85;96.06
22755;BME280;11544;42.020;23.094;2023-01-30T00:53:10;97503.47;;;2.11;97.05
22755;BME280;11544;42.020;23.094;2023-01-30T00:55:38;97491.56;;;2.72;97.29
22755;BME280;11544;42.020;23.094;2023-01-30T00:58:06;97479.53;;;2.74;97.53
22755;BME280;11544;42.020;23.094;2023-01-30T01:00:34;97476.97;;;2.75;96.21
22755;BME280;11544;42.020;23.094;2023-01-30T01:03:01;97483.78;;;2.17;97.86
22755;BME280;11544;42.020;23.094;2023-01-30T01:05:29;97487.16;;;1.93;99.57
22755;BME280;11544;42.020;23.094;2023-01-30T01:07:56;97479.41;;;1.85;100.00
22755;BME280;11544;42.020;23.094;2023-01-30T01:10:23;97485.38;;;1.79;100.00
22755;BME280;11544;42.020;23.094;2023-01-30T01:12:51;97490.50;;;1.75;100.00
22755;BME280;11544;42.020;23.094;2023-01-30T01:15:19;97492.28;;;1.91;100.00
22755;BME280;11544;42.020;23.094;2023-01-30T01:17:46;97486.22;;;1.71;100.00
22755;BME280;11544;42.020;23.094;2023-01-30T01:20:16;97482.03;;;1.97;100.00
22755;BME280;11544;42.020;23.094;2023-01-30T01:22:43;97470.06;;;2.13;100.00
22755;BME280;11544;42.020;23.094;2023-01-30T01:25:11;97466.66;;;2.36;100.00
22755;BME280;11544;42.020;23.094;2023-01-30T01:27:38;97465.78;;;2.15;100.00
22755;BME280;11544;42.020;23.094;2023-01-30T01:30:06;97461.53;;;2.29;100.00
22755;BME280;11544;42.020;23.094;2023-01-30T01:32:39;97459.78;;;2.18;100.00
22755;BME280;11544;42.020;23.094;2023-01-30T01:35:07;97464.75;;;1.59;100.00
22755;BME280;11544;42.020;23.094;2023-01-30T01:37:34;97467.34;;;1.64;100.00
22755;BME280;11544;42.020;23.094;2023-01-30T01:40:02;97454.59;;;2.10;100.00
22755;BME280;11544;42.020;23.094;2023-01-30T01:42:48;97464.84;;;1.85;100.00
22755;BME280;11544;42.020;23.094;2023-01-30T01:45:21;97458.06;;;2.06;100.00
22755;BME280;11544;42.020;23.094;2023-01-30T01:47:59;97455.50;;;2.10;100.00
22755;BME280;11544;42.020;23.094;2023-01-30T01:50:39;97454.63;;;2.13;100.00
22755;BME280;11544;42.020;23.094;2023-01-30T01:53:09;97457.16;;;1.93;100.00
22755;BME280;11544;42.020;23.094;2023-01-30T01:55:39;97452.00;;;1.93;100.00
22755;BME280;11544;42.020;23.094;2023-01-30T01:58:14;97450.22;;;1.72;100.00
22755;BME280;11544;42.020;23.094;2023-01-30T02:00:42;97450.88;;;1.22;100.00
22755;BME280;11544;42.020;23.094;2023-01-30T02:03:14;97449.38;;;1.75;100.00
22755;BME280;11544;42.020;23.094;2023-01-30T02:05:46;97437.41;;;1.89;100.00
22755;BME280;11544;42.020;23.094;2023-01-30T02:08:17;97446.78;;;1.64;100.00
22755;BME280;11544;42.020;23.094;2023-01-30T02:13:26;97445.63;;;1.00;100.00
22755;BME280;11544;42.020;23.094;2023-01-30T02:15:56;97444.97;;;1.35;100.00
22755;BME280;11544;42.020;23.094;2023-01-30T02:18:24;97439.78;;;1.26;100.00
22755;BME280;11544;42.020;23.094;2023-01-30T02:24:15;97432.88;;;1.17;100.00
22755;BME280;11544;42.020;23.094;2023-01-30T02:32:17;97435.25;;;0.80;100.00
22755;BME280;11544;42.020;23.094;2023-01-30T02:43:09;97424.88;;;0.70;100.00
22755;BME280;11544;42.020;23.094;2023-01-30T02:46:01;97426.75;;;0.97;100.00
22755;BME280;11544;42.020;23.094;2023-01-30T02:48:41;97433.66;;;1.04;100.00
22755;BME280;11544;42.020;23.094;2023-01-30T02:51:15;97433.47;;;0.73;100.00
22755;BME280;11544;42.020;23.094;2023-01-30T02:53:46;97434.94;;;0.42;100.00
22755;BME280;11544;42.020;23.094;2023-01-30T02:56:14;97437.66;;;0.63;100.00
22755;BME280;11544;42.020;23.094;2023-01-30T02:59:03;97443.75;;;0.73;100.00
22755;BME280;11544;42.020;23.094;2023-01-30T03:08:07;97438.69;;;0.89;100.00
22755;BME280;11544;42.020;23.094;2023-01-30T03:10:53;97431.13;;;1.10;100.00
22755;BME280;11544;42.020;23.094;2023-01-30T03:13:52;97437.00;;;0.91;100.00
22755;BME280;11544;42.020;23.094;2023-01-30T03:18:53;97427.06;;;1.60;100.00
22755;BME280;11544;42.020;23.094;2023-01-30T03:21:29;97427.72;;;1.17;100.00
22755;BME280;11544;42.020;23.094;2023-01-30T03:23:57;97427.75;;;1.22;100.00
22755;BME280;11544;42.020;23.094;2023-01-30T03:26:28;97429.31;;;0.97;100.00
22755;BME280;11544;42.020;23.094;2023-01-30T03:28:56;97438.72;;;0.90;100.00
22755;BME280;11544;42.020;23.094;2023-01-30T03:31:23;97431.00;;;0.86;100.00
22755;BME280;11544;42.020;23.094;2023-01-30T03:33:51;97437.91;;;0.99;100.00
22755;BME280;11544;42.020;23.094;2023-01-30T03:36:23;97432.72;;;0.94;100.00
22755;BME280;11544;42.020;23.094;2023-01-30T03:38:50;97441.28;;;0.90;100.00
22755;BME280;11544;42.020;23.094;2023-01-30T03:41:20;97431.06;;;0.99;100.00
22755;BME280;11544;42.020;23.094;2023-01-30T03:43:47;97425.94;;;1.01;100.00
22755;BME280;11544;42.020;23.094;2023-01-30T03:46:14;97428.56;;;1.13;100.00
22755;BME280;11544;42.020;23.094;2023-01-30T03:48:41;97427.06;;;1.54;100.00
22755;BME280;11544;42.020;23.094;2023-01-30T03:51:08;97427.69;;;1.10;100.00
22755;BME280;11544;42.020;23.094;2023-01-30T03:53:35;97431.88;;;0.94;100.00
22755;BME280;11544;42.020;23.094;2023-01-30T03:56:03;97437.00;;;0.94;100.00
22755;BME280;11544;42.020;23.094;2023-01-30T03:58:30;97437.94;;;1.02;100.00
22755;BME280;11544;42.020;23.094;2023-01-30T04:00:57;97441.31;;;0.98;100.00
22755;BME280;11544;42.020;23.094;2023-01-30T04:03:25;97432.00;;;1.17;100.00
22755;BME280;11544;42.020;23.094;2023-01-30T04:05:52;97427.06;;;1.64;100.00
22755;BME280;11544;42.020;23.094;2023-01-30T04:08:20;97428.63;;;1.27;100.00
22755;BME280;11544;42.020;23.094;2023-01-30T04:10:47;97418.47;;;1.53;100.00
22755;BME280;11544;42.020;23.094;2023-01-30T04:13:14;97415.94;;;1.59;100.00
22755;BME280;11544;42.020;23.094;2023-01-30T04:15:41;97421.88;;;1.44;100.00
22755;BME280;11544;42.020;23.094;2023-01-30T04:18:08;97407.41;;;1.68;100.00
22755;BME280;11544;42.020;23.094;2023-01-30T04:20:36;97409.09;;;1.67;100.00
22755;BME280;11544;42.020;23.094;2023-01-30T04:23:03;97408.94;;;1.24;100.00
22755;BME280;11544;42.020;23.094;2023-01-30T04:25:30;97421.00;;;1.38;100.00
22755;BME280;11544;42.020;23.094;2023-01-30T04:27:57;97414.94;;;1.30;100.00
22755;BME280;11544;42.020;23.094;2023-01-30T04:30:24;97407.38;;;1.69;100.00
22755;BME280;11544;42.020;23.094;2023-01-30T04:32:51;97402.06;;;1.20;100.00
22755;BME280;11544;42.020;23.094;2023-01-30T04:35:18;97402.19;;;1.51;100.00
22755;BME280;11544;42.020;23.094;2023-01-30T04:37:45;97397.94;;;1.67;100.00
22755;BME280;11544;42.020;23.094;2023-01-30T04:40:12;97395.28;;;1.36;100.00
22755;BME280;11544;42.020;23.094;2023-01-30T04:42:39;97390.97;;;1.29;100.00
22755;BME280;11544;42.020;23.094;2023-01-30T04:45:07;97396.16;;;1.41;100.00
22755;BME280;11544;42.020;23.094;2023-01-30T04:47:34;97397.06;;;1.53;100.00
22755;BME280;11544;42.020;23.094;2023-01-30T04:50:05;97396.19;;;1.44;100.00
22755;BME280;11544;42.020;23.094;2023-01-30T04:52:32;97395.31;;;1.45;100.00
22755;BME280;11544;42.020;23.094;2023-01-30T04:54:59;97393.66;;;1.54;100.00
22755;BME280;11544;42.020;23.094;2023-01-30T04:57:26;97381.72;;;1.93;100.00
22755;BME280;11544;42.020;23.094;2023-01-30T04:59:53;97391.06;;;1.44;100.00
22755;BME280;11544;42.020;23.094;2023-01-30T05:02:20;97398.63;;;1.15;100.00
22755;BME280;11544;42.020;23.094;2023-01-30T05:04:52;97392.72;;;1.30;100.00
22755;BME280;11544;42.020;23.094;2023-01-30T05:07:19;97388.53;;;1.61;100.00
22755;BME280;11544;42.020;23.094;2023-01-30T05:09:46;97395.28;;;1.33;100.00
22755;BME280;11544;42.020;23.094;2023-01-30T05:12:13;97393.53;;;1.27;100.00
22755;BME280;11544;42.020;23.094;2023-01-30T05:14:40;97391.81;;;1.23;100.00
22755;BME280;11544;42.020;23.094;2023-01-30T05:17:06;97401.22;;;1.24;100.00
22755;BME280;11544;42.020;23.094;2023-01-30T05:19:34;97393.59;;;1.43;100.00
22755;BME280;11544;42.020;23.094;2023-01-30T05:22:00;97398.78;;;1.49;100.00
22755;BME280;11544;42.020;23.094;2023-01-30T05:24:30;97388.53;;;1.69;100.00
22755;BME280;11544;42.020;23.094;2023-01-30T05:26:57;97396.28;;;1.80;100.00
22755;BME280;11544;42.020;23.094;2023-01-30T05:29:24;97390.31;;;2.10;100.00
22755;BME280;11544;42.020;23.094;2023-01-30T05:31:51;97393.72;;;1.84;100.00
22755;BME280;11544;42.020;23.094;2023-01-30T05:34:18;97393.72;;;1.98;100.00
22755;BME280;11544;42.020;23.094;2023-01-30T05:36:45;97392.88;;;1.82;100.00
22755;BME280;11544;42.020;23.094;2023-01-30T05:39:12;97391.13;;;1.71;100.00
22755;BME280;11544;42.020;23.094;2023-01-30T05:41:39;97386.75;;;1.48;100.00
22755;BME280;11544;42.020;23.094;2023-01-30T05:44:06;97394.53;;;1.69;100.00
22755;BME280;11544;42.020;23.094;2023-01-30T05:46:33;97391.94;;;1.54;100.00
22755;BME280;11544;42.020;23.094;2023-01-30T05:49:00;97390.28;;;1.78;100.00
22755;BME280;11544;42.020;23.094;2023-01-30T05:51:29;97391.88;;;1.43;100.00
22755;BME280;11544;42.020;23.094;2023-01-30T05:53:58;97395.31;;;1.48;100.00
22755;BME280;11544;42.020;23.094;2023-01-30T05:56:25;97392.78;;;1.50;100.00
22755;BME280;11544;42.020;23.094;2023-01-30T05:58:53;97389.41;;;1.79;100.00
22755;BME280;11544;42.020;23.094;2023-01-30T06:01:22;97389.38;;;1.69;100.00
22755;BME280;11544;42.020;23.094;2023-01-30T06:03:49;97399.22;;;5.08;100.00
22755;BME280;11544;42.020;23.094;2023-01-30T06:06:16;97410.69;;;5.58;100.00
22755;BME280;11544;42.020;23.094;2023-01-30T06:08:43;97394.50;;;3.15;100.00
22755;BME280;11544;42.020;23.094;2023-01-30T06:11:13;97391.22;;;2.20;100.00
22755;BME280;11544;42.020;23.094;2023-01-30T06:13:40;97390.28;;;1.85;100.00
22755;BME280;11544;42.020;23.094;2023-01-30T06:16:10;97396.25;;;1.77;100.00
22755;BME280;11544;42.020;23.094;2023-01-30T06:18:38;97392.84;;;1.68;100.00
22755;BME280;11544;42.020;23.094;2023-01-30T06:21:05;97399.66;;;1.66;100.00
22755;BME280;11544;42.020;23.094;2023-01-30T06:23:33;97391.94;;;1.54;100.00
22755;BME280;11544;42.020;23.094;2023-01-30T06:26:01;97387.69;;;1.64;100.00
22755;BME280;11544;42.020;23.094;2023-01-30T06:28:31;97389.38;;;1.60;100.00
22755;BME280;11544;42.020;23.094;2023-01-30T06:30:58;97391.91;;;1.51;100.00
22755;BME280;11544;42.020;23.094;2023-01-30T06:33:26;97390.22;;;1.59;100.00
22755;BME280;11544;42.020;23.094;2023-01-30T06:35:53;97395.28;;;1.39;100.00
22755;BME280;11544;42.020;23.094;2023-01-30T06:38:20;97394.50;;;1.53;100.00
22755;BME280;11544;42.020;23.094;2023-01-30T06:40:48;97386.88;;;1.88;100.00
22755;BME280;11544;42.020;23.094;2023-01-30T06:43:17;97392.69;;;1.27;100.00
22755;BME280;11544;42.020;23.094;2023-01-30T06:45:43;97395.34;;;1.53;100.00
22755;BME280;11544;42.020;23.094;2023-01-30T06:48:10;97388.56;;;1.78;100.00
22755;BME280;11544;42.020;23.094;2023-01-30T06:50:40;97388.47;;;1.44;100.00
22755;BME280;11544;42.020;23.094;2023-01-30T06:53:07;97393.69;;;1.66;100.00
22755;BME280;11544;42.020;23.094;2023-01-30T06:55:35;97398.81;;;1.64;100.00
22755;BME280;11544;42.020;23.094;2023-01-30T06:58:10;97389.41;;;1.74;100.00
22755;BME280;11544;42.020;23.094;2023-01-30T07:00:38;97380.88;;;1.94;100.00
22755;BME280;11544;42.020;23.094;2023-01-30T07:03:11;97382.59;;;2.47;100.00
22755;BME280;11544;42.020;23.094;2023-01-30T07:05:42;97376.63;;;2.34;100.00
22755;BME280;11544;42.020;23.094;2023-01-30T07:08:10;97378.34;;;2.18;100.00
22755;BME280;11544;42.020;23.094;2023-01-30T07:10:37;97375.75;;;2.18;100.00
22755;BME280;11544;42.020;23.094;2023-01-30T07:13:04;97379.19;;;2.02;100.00
22755;BME280;11544;42.020;23.094;2023-01-30T07:15:31;97378.28;;;1.81;100.00
22755;BME280;11544;42.020;23.094;2023-01-30T07:17:59;97375.75;;;2.09;100.00
22755;BME280;11544;42.020;23.094;2023-01-30T07:20:26;97378.31;;;2.14;100.00
22755;BME280;11544;42.020;23.094;2023-01-30T07:22:54;97383.47;;;2.06;100.00
22755;BME280;11544;42.020;23.094;2023-01-30T07:25:23;97378.31;;;2.30;97.91
22755;BME280;11544;42.020;23.094;2023-01-30T07:27:56;97380.91;;;2.06;94.98
22755;BME280;11544;42.020;23.094;2023-01-30T07:30:24;97384.28;;;1.77;93.98
22755;BME280;11544;42.020;23.094;2023-01-30T07:32:55;97373.16;;;1.90;93.73
22755;BME280;11544;42.020;23.094;2023-01-30T07:35:24;97375.72;;;1.94;92.22
22755;BME280;11544;42.020;23.094;2023-01-30T07:37:54;97372.31;;;2.10;92.01
22755;BME280;11544;42.020;23.094;2023-01-30T07:40:22;97379.16;;;1.96;91.31
22755;BME280;11544;42.020;23.094;2023-01-30T07:43:10;97374.03;;;2.17;91.14
22755;BME280;11544;42.020;23.094;2023-01-30T07:45:47;97377.47;;;2.25;89.12
22755;BME280;11544;42.020;23.094;2023-01-30T07:48:17;97379.19;;;2.20;88.47
22755;BME280;11544;42.020;23.094;2023-01-30T07:50:45;97380.88;;;2.03;87.23
22755;BME280;11544;42.020;23.094;2023-01-30T07:53:14;97381.75;;;2.03;88.17
22755;BME280;11544;42.020;23.094;2023-01-30T07:55:43;97386.03;;;1.97;87.26
22755;BME280;11544;42.020;23.094;2023-01-30T07:58:12;97375.72;;;1.98;86.75
22755;BME280;11544;42.020;23.094;2023-01-30T08:00:40;97370.59;;;2.30;87.14
22755;BME280;11544;42.020;23.094;2023-01-30T08:03:13;97378.31;;;2.47;85.70
22755;BME280;11544;42.020;23.094;2023-01-30T08:05:40;97374.88;;;2.36;85.75
22755;BME280;11544;42.020;23.094;2023-01-30T08:08:07;97380.91;;;2.44;85.44
22755;BME280;11544;42.020;23.094;2023-01-30T08:10:34;97383.44;;;2.64;83.95
22755;BME280;11544;42.020;23.094;2023-01-30T08:13:02;97390.31;;;2.68;82.70
22755;BME280;11544;42.020;23.094;2023-01-30T08:15:29;97386.88;;;2.75;82.62
22755;BME280;11544;42.020;23.094;2023-01-30T08:17:58;97388.59;;;2.61;82.87
22755;BME280;11544;42.020;23.094;2023-01-30T08:20:26;97387.72;;;2.71;81.82
22755;BME280;11544;42.020;23.094;2023-01-30T08:22:54;97389.47;;;2.68;81.85
22755;BME280;11544;42.020;23.094;2023-01-30T08:25:21;97392.91;;;2.39;81.04
22755;BME280;11544;42.020;23.094;2023-01-30T08:27:49;97391.19;;;2.40;81.52
22755;BME280;11544;42.020;23.094;2023-01-30T08:30:16;97392.03;;;2.26;81.15
22755;BME280;11544;42.020;23.094;2023-01-30T08:32:43;97387.78;;;2.22;81.90
22755;BME280;11544;42.020;23.094;2023-01-30T08:35:10;97389.47;;;2.32;81.72
22755;BME280;11544;42.020;23.094;2023-01-30T08:37:39;97387.75;;;2.48;82.19
22755;BME280;11544;42.020;23.094;2023-01-30T08:40:06;97384.31;;;2.43;81.30
22755;BME280;11544;42.020;23.094;2023-01-30T08:42:35;97380.06;;;2.27;81.61
22755;BME280;11544;42.020;23.094;2023-01-30T08:45:02;97379.16;;;2.62;81.50
22755;BME280;11544;42.020;23.094;2023-01-30T08:47:30;97369.72;;;2.64;82.06
22755;BME280;11544;42.020;23.094;2023-01-30T08:49:57;97375.75;;;2.47;81.99
22755;BME280;11544;42.020;23.094;2023-01-30T08:52:23;97377.44;;;2.67;82.22
22755;BME280;11544;42.020;23.094;2023-01-30T08:54:50;97374.03;;;2.32;80.90
22755;BME280;11544;42.020;23.094;2023-01-30T08:57:17;97372.34;;;2.35;81.38
22755;BME280;11544;42.020;23.094;2023-01-30T08:59:44;97374.88;;;2.36;81.71
22755;BME280;11544;42.020;23.094;2023-01-30T09:02:12;97364.63;;;2.39;82.52
22755;BME280;11544;42.020;23.094;2023-01-30T09:04:40;97370.59;;;2.44;81.40
22755;BME280;11544;42.020;23.094;2023-01-30T09:07:07;97368.03;;;2.50;81.45
22755;BME280;11544;42.020;23.094;2023-01-30T09:09:34;97363.75;;;2.39;81.91
22755;BME280;11544;42.020;23.094;2023-01-30T09:12:02;97355.94;;;2.79;82.49
22755;BME280;11544;42.020;23.094;2023-01-30T09:14:28;97356.84;;;2.73;82.81
22755;BME280;11544;42.020;23.094;2023-01-30T09:16:56;97344.81;;;2.81;83.05
22755;BME280;11544;42.020;23.094;2023-01-30T09:19:26;97346.53;;;2.78;81.37
22755;BME280;11544;42.020;23.094;2023-01-30T09:21:54;97340.50;;;2.86;81.42
22755;BME280;11544;42.020;23.094;2023-01-30T09:24:22;97331.94;;;2.73;80.03
22755;BME280;11544;42.020;23.094;2023-01-30T09:26:54;97333.63;;;2.90;80.57
22755;BME280;11544;42.020;23.094;2023-01-30T09:29:24;97333.63;;;2.87;80.79
22755;BME280;11544;42.020;23.094;2023-01-30T09:31:51;97328.50;;;2.82;80.94
22755;BME280;11544;42.020;23.094;2023-01-30T09:34:18;97319.91;;;2.86;79.45
22755;BME280;11544;42.020;23.094;2023-01-30T09:36:46;97316.34;;;3.13;78.90
22755;BME280;11544;42.020;23.094;2023-01-30T09:39:13;97319.88;;;2.99;78.51
22755;BME280;11544;42.020;23.094;2023-01-30T09:45:22;97314.75;;;2.80;80.05
22755;BME280;11544;42.020;23.094;2023-01-30T09:48:18;97312.97;;;2.99;79.70
22755;BME280;11544;42.020;23.094;2023-01-30T09:56:28;97294.13;;;3.00;77.27
22755;BME280;11544;42.020;23.094;2023-01-30T09:58:57;97290.63;;;3.12;77.53
22755;BME280;11544;42.020;23.094;2023-01-30T10:04:23;97281.91;;;3.34;74.20
22755;BME280;11544;42.020;23.094;2023-01-30T10:09:41;97278.53;;;3.25;74.51
22755;BME280;11544;42.020;23.094;2023-01-30T10:12:27;97271.72;;;3.13;74.58
22755;BME280;11544;42.020;23.094;2023-01-30T10:18:20;97269.19;;;2.97;74.35
22755;BME280;11544;42.020;23.094;2023-01-30T10:26:31;97253.53;;;3.37;74.77
22755;BME280;11544;42.020;23.094;2023-01-30T10:29:01;97256.16;;;3.28;73.41
22755;BME280;11544;42.020;23.094;2023-01-30T10:31:40;97244.09;;;3.38;74.49
22755;BME280;11544;42.020;23.094;2023-01-30T10:34:22;97245.06;;;3.20;73.27
22755;BME280;11544;42.020;23.094;2023-01-30T10:39:37;97239.81;;;3.32;71.50
22755;BME280;11544;42.020;23.094;2023-01-30T10:42:27;97236.41;;;3.33;70.51
22755;BME280;11544;42.020;23.094;2023-01-30T10:45:04;97232.09;;;3.32;70.81
22755;BME280;11544;42.020;23.094;2023-01-30T10:50:18;97228.84;;;3.07;70.06
22755;BME280;11544;42.020;23.094;2023-01-30T10:53:06;97217.56;;;3.24;71.50
22755;BME280;11544;42.020;23.094;2023-01-30T10:55:47;97222.81;;;3.08;70.44
22755;BME280;11544;42.020;23.094;2023-01-30T11:04:02;97206.28;;;3.43;69.61
22755;BME280;11544;42.020;23.094;2023-01-30T11:06:32;97206.25;;;3.48;69.39
22755;BME280;11544;42.020;23.094;2023-01-30T11:09:02;97189.28;;;3.11;67.86
22755;BME280;11544;42.020;23.094;2023-01-30T11:11:47;97191.00;;;3.09;68.21
22755;BME280;11544;42.020;23.094;2023-01-30T11:14:18;97186.56;;;3.33;70.01
22755;BME280;11544;42.020;23.094;2023-01-30T11:16:50;97180.47;;;3.48;69.32
22755;BME280;11544;42.020;23.094;2023-01-30T11:19:37;97178.84;;;3.36;67.07
22755;BME280;11544;42.020;23.094;2023-01-30T11:22:12;97160.00;;;3.26;66.69
22755;BME280;11544;42.020;23.094;2023-01-30T11:24:44;97155.53;;;3.50;66.16
22755;BME280;11544;42.020;23.094;2023-01-30T11:27:22;97140.88;;;3.55;67.94
22755;BME280;11544;42.020;23.094;2023-01-30T11:30:02;97138.91;;;3.81;66.03
22755;BME280;11544;42.020;23.094;2023-01-30T11:32:29;97133.06;;;3.61;64.99
22755;BME280;11544;42.020;23.094;2023-01-30T11:37:43;97131.13;;;3.85;66.02
22755;BME280;11544;42.020;23.094;2023-01-30T11:42:46;97129.81;;;3.42;64.63
22755;BME280;11544;42.020;23.094;2023-01-30T11:45:24;97123.94;;;3.23;65.78
22755;BME280;11544;42.020;23.094;2023-01-30T11:47:57;97111.84;;;3.33;65.07
22755;BME280;11544;42.020;23.094;2023-01-30T11:50:38;97111.59;;;3.59;64.78
22755;BME280;11544;42.020;23.094;2023-01-30T11:53:27;97102.06;;;3.72;65.05
22755;BME280;11544;42.020;23.094;2023-01-30T11:56:03;97097.03;;;3.59;64.33
22755;BME280;11544;42.020;23.094;2023-01-30T11:58:37;97097.16;;;3.46;62.28
22755;BME280;11544;42.020;23.094;2023-01-30T12:01:08;97087.00;;;3.26;63.52
22755;BME280;11544;42.020;23.094;2023-01-30T12:03:43;97076.31;;;3.66;63.53
22755;BME280;11544;42.020;23.094;2023-01-30T12:06:20;97075.28;;;3.82;63.84
22755;BME280;11544;42.020;23.094;2023-01-30T12:08:51;97070.97;;;3.84;63.23
22755;BME280;11544;42.020;23.094;2023-01-30T12:11:28;97065.97;;;3.72;62.99
22755;BME280;11544;42.020;23.094;2023-01-30T12:16:52;97054.00;;;3.63;63.09
22755;BME280;11544;42.020;23.094;2023-01-30T12:19:38;97061.03;;;3.50;63.03
22755;BME280;11544;42.020;23.094;2023-01-30T12:24:56;97057.47;;;3.62;63.58
22755;BME280;11544;42.020;23.094;2023-01-30T12:33:13;97049.66;;;3.68;61.85
22755;BME280;11544;42.020;23.094;2023-01-30T12:35:54;97042.81;;;3.66;61.93
22755;BME280;11544;42.020;23.094;2023-01-30T12:44:16;97035.16;;;3.58;60.66
22755;BME280;11544;42.020;23.094;2023-01-30T12:47:10;97035.66;;;3.07;61.33
22755;BME280;11544;42.020;23.094;2023-01-30T12:52:46;97017.81;;;3.74;60.83
22755;BME280;11544;42.020;23.094;2023-01-30T12:55:41;97011.88;;;3.67;60.81
22755;BME280;11544;42.020;23.094;2023-01-30T12:58:20;97009.22;;;3.73;61.22
22755;BME280;11544;42.020;23.094;2023-01-30T13:01:18;97012.75;;;3.66;59.85
22755;BME280;11544;42.020;23.094;2023-01-30T13:06:49;97002.19;;;3.88;60.89
22755;BME280;11544;42.020;23.094;2023-01-30T13:09:37;96995.25;;;3.90;58.15
22755;BME280;11544;42.020;23.094;2023-01-30T13:12:41;96994.34;;;3.95;58.92
22755;BME280;11544;42.020;23.094;2023-01-30T13:21:34;96986.13;;;3.63;59.71
22755;BME280;11544;42.020;23.094;2023-01-30T13:24:20;96981.00;;;3.63;59.35
22755;BME280;11544;42.020;23.094;2023-01-30T13:26:51;96978.31;;;3.72;58.93
22755;BME280;11544;42.020;23.094;2023-01-30T13:29:30;96978.41;;;3.64;59.94
22755;BME280;11544;42.020;23.094;2023-01-30T13:32:00;96974.63;;;3.15;58.48
22755;BME280;11544;42.020;23.094;2023-01-30T13:34:35;96978.03;;;3.19;59.10
22755;BME280;11544;42.020;23.094;2023-01-30T13:37:18;96974.88;;;3.68;59.05
22755;BME280;11544;42.020;23.094;2023-01-30T13:39:52;96977.34;;;3.80;58.57
22755;BME280;11544;42.020;23.094;2023-01-30T13:42:32;96970.91;;;4.11;58.56
22755;BME280;11544;42.020;23.094;2023-01-30T13:45:03;96971.34;;;3.77;58.24
22755;BME280;11544;42.020;23.094;2023-01-30T13:47:47;96965.09;;;3.96;56.91
22755;BME280;11544;42.020;23.094;2023-01-30T13:56:37;96962.09;;;3.60;56.55
22755;BME280;11544;42.020;23.094;2023-01-30T13:59:39;96959.47;;;3.64;57.71
22755;BME280;11544;42.020;23.094;2023-01-30T14:02:21;96959.53;;;3.62;58.62
22755;BME280;11544;42.020;23.094;2023-01-30T14:04:55;96957.69;;;3.72;57.92
22755;BME280;11544;42.020;23.094;2023-01-30T14:10:18;96959.88;;;3.30;57.49
22755;BME280;11544;42.020;23.094;2023-01-30T14:12:52;96963.69;;;2.92;57.94
22755;BME280;11544;42.020;23.094;2023-01-30T14:15:25;96949.78;;;3.10;57.13
22755;BME280;11544;42.020;23.094;2023-01-30T14:18:05;96952.31;;;3.11;58.03
22755;BME280;11544;42.020;23.094;2023-01-30T14:20:38;96947.88;;;3.29;58.14
22755;BME280;11544;42.020;23.094;2023-01-30T14:23:29;96941.69;;;3.44;57.61
22755;BME280;11544;42.020;23.094;2023-01-30T14:25:59;96943.31;;;3.52;57.81
22755;BME280;11544;42.020;23.094;2023-01-30T14:30:58;96927.16;;;3.38;57.55
22755;BME280;11544;42.020;23.094;2023-01-30T14:38:33;96921.63;;;3.67;57.05
22755;BME280;11544;42.020;23.094;2023-01-30T14:43:45;96921.75;;;3.58;55.93
22755;BME280;11544;42.020;23.094;2023-01-30T14:51:42;96920.00;;;2.83;57.35
22755;BME280;11544;42.020;23.094;2023-01-30T14:56:52;96921.47;;;3.08;56.96
22755;BME280;11544;42.020;23.094;2023-01-30T15:07:39;96924.78;;;3.16;58.92
22755;BME280;11544;42.020;23.094;2023-01-30T15:15:55;96922.66;;;2.73;59.10
22755;BME280;11544;42.020;23.094;2023-01-30T15:21:33;96916.91;;;3.33;63.97
22755;BME280;11544;42.020;23.094;2023-01-30T15:32:26;96910.13;;;3.25;69.67
22755;BME280;11544;42.020;23.094;2023-01-30T15:35:01;96921.91;;;2.62;65.84
22755;BME280;11544;42.020;23.094;2023-01-30T15:37:53;96913.59;;;2.26;66.42
22755;BME280;11544;42.020;23.094;2023-01-30T15:40:23;96922.06;;;2.42;65.91
22755;BME280;11544;42.020;23.094;2023-01-30T15:46:08;96924.06;;;3.05;83.10
22755;BME280;11544;42.020;23.094;2023-01-30T15:51:31;96919.84;;;1.88;71.51
22755;BME280;11544;42.020;23.094;2023-01-30T15:54:02;96920.94;;;1.47;72.86